Terminal Aerodrome Forecast
Issued by NWS Twin Cities, MN

Home | Current Version | Previous Version | Text Only | Print | Product List | Glossary On
Versions: 1 2 3 4 5 6 7 8 9 10 11 12 13 14 15 16 17 18 19 20 21 22 23 24 25 26
000
FTUS43 KMPX 201100 RRA
TAFSTC
TAF
KSTC 201139Z 2012/2112 30011KT P6SM FEW012 SCT250
      TEMPO 2012/2014 BKN012
     FM201800 28013G20KT P6SM SCT050 BKN100
     FM202000 29013G20KT P6SM BKN045 OVC080
      TEMPO 2020/2024 2SM TSRA OVC030CB
     FM210300 31012G19KT P6SM BKN050
     FM210600 31009KT P6SM SCT100=

USA.gov is the U.S. government's official web portal to all federal, state and local government web resources and services.